This is the latest recevied weather packets stored in our database for station/object SK0BO-13. If no packets are shown the sender has not sent any weather packets the latest 10 day(s).
| Time | Temp. | Humidity | Pressure | Rain* | Wind** | Luminosity | Snow |
|---|---|---|---|---|---|---|---|
| 1777911762 | 26.67° C | - | 985.9 hPa | 0 mm | - | - | - |
| 1777909242 | 28.33° C | - | 985.7 hPa | 0 mm | - | - | - |
| 1777906723 | 26.67° C | 3% | 985.7 hPa | 0 mm | - | - | - |
| 1777904202 | 27.78° C | 1% | 985.7 hPa | 0 mm | - | - | - |
| 1777901683 | 28.33° C | 2% | 985.7 hPa | 0 mm | - | - | - |
| 1777899162 | 26.67° C | 4% | 985.7 hPa | 0 mm | - | - | - |
| 1777896643 | 27.22° C | 5% | 985.8 hPa | 0 mm | - | - | - |
| 1777894122 | 26.67° C | 4% | 986.6 hPa | 0 mm | - | - | - |
| 1777891602 | 26.11° C | 6% | 986.7 hPa | 0 mm | - | - | - |
| 1777889082 | 25.56° C | 10% | 986.7 hPa | 0 mm | - | - | - |
| 1777886562 | 20° C | 19% | 986.7 hPa | 0 mm | - | - | - |
| 1777884042 | 16.67° C | 23% | 986.7 hPa | 0 mm | - | - | - |
| 1777881522 | 12.78° C | 30% | 986.8 hPa | 0 mm | - | - | - |
| 1777879002 | 9.44° C | 37% | 987.6 hPa | 0 mm | - | - | - |
| 1777876482 | 8.89° C | 35% | 987.7 hPa | 0 mm | - | - | - |
| 1777873963 | 8.33° C | 34% | 988.7 hPa | 0 mm | - | - | - |
| 1777871442 | 7.78° C | 31% | 988.7 hPa | 0 mm | - | - | - |
| 1777868922 | 8.33° C | 25% | 988.7 hPa | 0 mm | - | - | - |
| 1777866402 | 8.89° C | 19% | 988.7 hPa | 0 mm | - | - | - |
| 1777863882 | 8.33° C | 19% | 989.7 hPa | 0 mm | - | - | - |
| 1777861362 | 8.89° C | 19% | 989.7 hPa | 0 mm | - | - | - |
| 1777858842 | 8.89° C | 20% | 989.7 hPa | 0 mm | - | - | - |
| 1777856323 | 8.89° C | 21% | 990.7 hPa | 0 mm | - | - | - |
| 1777853802 | 8.89° C | 21% | 990.7 hPa | 0 mm | - | - | - |
| 1777851282 | 9.44° C | 24% | 991 hPa | 0 mm | - | - | - |
* Rain latest hour (hover to see other rain measurements)
** Current wind speed in m/s (hover to see current wind gust speed)